This is the latest recevied weather packets stored in our database for station/object F4FEB-14. If no packets are shown the sender has not sent any weather packets the latest 10 day(s).
| Time | Temp. | Humidity | Pressure | Rain* | Wind** | Luminosity | Snow |
|---|---|---|---|---|---|---|---|
| 1777659752 | 18.33° C | 100% | 1022.9 hPa | 0 mm | - | - | - |
| 1777659150 | 18.89° C | 100% | 1022.8 hPa | 0 mm | - | - | - |
| 1777658848 | 19.44° C | 100% | 1022.9 hPa | 0 mm | - | - | - |
| 1777658547 | 19.44° C | 100% | 1022.9 hPa | 0 mm | - | - | - |
| 1777658245 | 19.44° C | 100% | 1022.9 hPa | 0 mm | - | - | - |
| 1777657943 | 20° C | 100% | 1022.9 hPa | 0 mm | - | - | - |
| 1777657642 | 20° C | 100% | 1022.9 hPa | 0 mm | - | - | - |
| 1777657341 | 20° C | 100% | 1022.9 hPa | 0 mm | - | - | - |
| 1777657040 | 20° C | 100% | 1022.9 hPa | 0 mm | - | - | - |
| 1777656739 | 20.56° C | 100% | 1022.8 hPa | 0 mm | - | - | - |
| 1777656439 | 20.56° C | 100% | 1022.8 hPa | 0 mm | - | - | - |
| 1777656136 | 21.11° C | 100% | 1022.8 hPa | 0 mm | - | - | - |
| 1777655835 | 21.67° C | 100% | 1022.8 hPa | 0 mm | - | - | - |
| 1777655533 | 21.67° C | 100% | 1022.7 hPa | 0 mm | - | - | - |
| 1777654931 | 21.67° C | 100% | 1022.7 hPa | 0 mm | - | - | - |
| 1777654628 | 22.22° C | 99% | 1022.7 hPa | 0 mm | - | - | - |
| 1777654327 | 22.22° C | 94% | 1022.6 hPa | 0 mm | - | - | - |
| 1777654026 | 22.78° C | 89% | 1022.7 hPa | 0 mm | - | - | - |
| 1777653724 | 23.33° C | 81% | 1022.7 hPa | 0 mm | - | - | - |
| 1777653423 | 24.44° C | 74% | 1022.8 hPa | 0 mm | - | - | - |
| 1777653121 | 25° C | 71% | 1022.8 hPa | 0 mm | - | - | - |
| 1777652820 | 24.44° C | 73% | 1022.8 hPa | 0 mm | - | - | - |
| 1777652519 | 25° C | 74% | 1022.9 hPa | 0 mm | - | - | - |
| 1777652217 | 23.89° C | 82% | 1022.9 hPa | 0 mm | - | - | - |
| 1777651916 | 24.44° C | 71% | 1022.8 hPa | 0 mm | - | - | - |
* Rain latest hour (hover to see other rain measurements)
** Current wind speed in m/s (hover to see current wind gust speed)